METAR

ENBN 251350Z 17011KT 9999 VCSH FEW025CB SCT044 BKN059 03/M03 Q1000

ENMS 251350Z 20004KT 9999 BKN044 M04/M06 Q1000 RMK WIND 412FT VRB02KT

ENNM 251350Z 07013KT 9999 FEW000 FEW010 M08/M09 Q1002

ENOL 251350Z 13014KT 9999 FEW014CB SCT035 M02/M05 Q1000 NOSIG

ENST 251350Z 17011KT 140V200 9999 VCSH SCT018 BKN030 02/M03 Q0999 RMK WIND 300FT 16016KT

ENVA 251350Z 12007KT CAVOK M07/M10 Q1002 NOSIG RMK WIND 670FT 16007KT



TAF

ENVA 2512/2612 10007KT 9999 FEW040 PROB30 TEMPO 2608/2612 1500 SHSN VV007